sensor_id;sensor_type;location;lat;lon;timestamp;P1;durP1;ratioP1;P2;durP2;ratioP2
6757;SDS011;3416;53.074;8.822;2023-08-06T00:02:14;4.10;;;3.70;;
6757;SDS011;3416;53.074;8.822;2023-08-06T00:04:42;6.30;;;4.47;;
6757;SDS011;3416;53.074;8.822;2023-08-06T00:07:09;4.25;;;3.83;;
6757;SDS011;3416;53.074;8.822;2023-08-06T00:09:36;4.95;;;3.35;;
6757;SDS011;3416;53.074;8.822;2023-08-06T00:12:04;3.70;;;3.40;;
6757;SDS011;3416;53.074;8.822;2023-08-06T00:14:32;4.65;;;4.22;;
6757;SDS011;3416;53.074;8.822;2023-08-06T00:16:59;3.90;;;3.50;;
6757;SDS011;3416;53.074;8.822;2023-08-06T00:19:26;4.72;;;4.32;;
6757;SDS011;3416;53.074;8.822;2023-08-06T00:21:54;4.07;;;3.65;;
6757;SDS011;3416;53.074;8.822;2023-08-06T00:24:21;4.85;;;4.15;;
6757;SDS011;3416;53.074;8.822;2023-08-06T00:26:48;4.25;;;3.90;;
6757;SDS011;3416;53.074;8.822;2023-08-06T00:29:15;3.75;;;3.40;;
6757;SDS011;3416;53.074;8.822;2023-08-06T00:31:43;6.40;;;5.13;;
6757;SDS011;3416;53.074;8.822;2023-08-06T00:34:10;5.75;;;5.13;;
6757;SDS011;3416;53.074;8.822;2023-08-06T00:36:37;4.85;;;4.35;;
6757;SDS011;3416;53.074;8.822;2023-08-06T00:39:05;6.07;;;5.10;;
6757;SDS011;3416;53.074;8.822;2023-08-06T00:41:33;7.72;;;5.70;;
6757;SDS011;3416;53.074;8.822;2023-08-06T00:43:59;6.38;;;5.50;;
6757;SDS011;3416;53.074;8.822;2023-08-06T00:46:26;6.82;;;6.13;;
6757;SDS011;3416;53.074;8.822;2023-08-06T00:48:54;7.07;;;6.32;;
6757;SDS011;3416;53.074;8.822;2023-08-06T00:51:21;7.05;;;6.32;;
6757;SDS011;3416;53.074;8.822;2023-08-06T00:53:49;6.20;;;5.60;;
6757;SDS011;3416;53.074;8.822;2023-08-06T00:56:20;9.45;;;6.80;;
6757;SDS011;3416;53.074;8.822;2023-08-06T00:58:46;8.32;;;6.80;;
6757;SDS011;3416;53.074;8.822;2023-08-06T01:01:14;9.48;;;6.88;;
6757;SDS011;3416;53.074;8.822;2023-08-06T01:03:41;8.13;;;7.05;;
6757;SDS011;3416;53.074;8.822;2023-08-06T01:06:08;10.82;;;7.10;;
6757;SDS011;3416;53.074;8.822;2023-08-06T01:08:38;7.30;;;6.60;;
6757;SDS011;3416;53.074;8.822;2023-08-06T01:11:14;7.50;;;6.22;;
6757;SDS011;3416;53.074;8.822;2023-08-06T01:13:52;7.55;;;6.75;;
6757;SDS011;3416;53.074;8.822;2023-08-06T01:16:32;6.82;;;5.90;;
6757;SDS011;3416;53.074;8.822;2023-08-06T01:19:02;8.70;;;6.60;;
6757;SDS011;3416;53.074;8.822;2023-08-06T01:21:30;7.80;;;6.85;;
6757;SDS011;3416;53.074;8.822;2023-08-06T01:23:57;8.35;;;6.25;;
6757;SDS011;3416;53.074;8.822;2023-08-06T01:26:26;8.25;;;5.32;;
6757;SDS011;3416;53.074;8.822;2023-08-06T01:28:59;6.75;;;5.30;;
6757;SDS011;3416;53.074;8.822;2023-08-06T01:31:33;7.72;;;6.35;;
6757;SDS011;3416;53.074;8.822;2023-08-06T01:34:04;6.38;;;5.32;;
6757;SDS011;3416;53.074;8.822;2023-08-06T01:36:37;5.60;;;5.10;;
6757;SDS011;3416;53.074;8.822;2023-08-06T01:39:05;5.10;;;4.60;;
6757;SDS011;3416;53.074;8.822;2023-08-06T01:41:32;8.18;;;7.38;;
6757;SDS011;3416;53.074;8.822;2023-08-06T01:43:59;8.07;;;6.03;;
6757;SDS011;3416;53.074;8.822;2023-08-06T01:46:26;7.00;;;6.30;;
6757;SDS011;3416;53.074;8.822;2023-08-06T01:48:53;6.25;;;5.65;;
6757;SDS011;3416;53.074;8.822;2023-08-06T01:51:20;6.68;;;6.00;;
6757;SDS011;3416;53.074;8.822;2023-08-06T01:53:48;6.57;;;5.53;;
6757;SDS011;3416;53.074;8.822;2023-08-06T01:56:15;7.28;;;5.05;;
6757;SDS011;3416;53.074;8.822;2023-08-06T01:58:43;6.50;;;5.90;;
6757;SDS011;3416;53.074;8.822;2023-08-06T02:01:10;5.57;;;5.00;;
6757;SDS011;3416;53.074;8.822;2023-08-06T02:03:37;5.93;;;4.28;;
6757;SDS011;3416;53.074;8.822;2023-08-06T02:06:04;6.18;;;5.55;;
6757;SDS011;3416;53.074;8.822;2023-08-06T02:08:32;6.88;;;5.85;;
6757;SDS011;3416;53.074;8.822;2023-08-06T02:11:00;5.95;;;5.05;;
6757;SDS011;3416;53.074;8.822;2023-08-06T02:13:28;6.53;;;5.93;;
6757;SDS011;3416;53.074;8.822;2023-08-06T02:15:54;4.97;;;4.50;;
6757;SDS011;3416;53.074;8.822;2023-08-06T02:18:22;8.85;;;5.78;;
6757;SDS011;3416;53.074;8.822;2023-08-06T02:20:59;6.93;;;6.32;;
6757;SDS011;3416;53.074;8.822;2023-08-06T02:23:26;5.03;;;4.63;;
6757;SDS011;3416;53.074;8.822;2023-08-06T02:25:57;6.75;;;5.65;;
6757;SDS011;3416;53.074;8.822;2023-08-06T02:28:27;5.10;;;4.60;;
6757;SDS011;3416;53.074;8.822;2023-08-06T02:30:54;5.80;;;5.30;;
6757;SDS011;3416;53.074;8.822;2023-08-06T02:33:21;7.45;;;5.40;;
6757;SDS011;3416;53.074;8.822;2023-08-06T02:35:48;9.85;;;7.75;;
6757;SDS011;3416;53.074;8.822;2023-08-06T02:38:15;7.95;;;7.10;;
6757;SDS011;3416;53.074;8.822;2023-08-06T02:40:43;9.27;;;8.20;;
6757;SDS011;3416;53.074;8.822;2023-08-06T02:43:12;13.32;;;10.52;;
6757;SDS011;3416;53.074;8.822;2023-08-06T02:45:39;9.38;;;8.43;;
6757;SDS011;3416;53.074;8.822;2023-08-06T02:48:06;8.60;;;7.80;;
6757;SDS011;3416;53.074;8.822;2023-08-06T02:50:39;10.32;;;7.13;;
6757;SDS011;3416;53.074;8.822;2023-08-06T02:53:07;8.95;;;7.10;;
6757;SDS011;3416;53.074;8.822;2023-08-06T02:55:34;8.07;;;6.97;;
6757;SDS011;3416;53.074;8.822;2023-08-06T02:58:01;10.18;;;8.10;;
6757;SDS011;3416;53.074;8.822;2023-08-06T03:00:30;7.28;;;6.20;;
6757;SDS011;3416;53.074;8.822;2023-08-06T03:02:57;8.57;;;6.63;;
6757;SDS011;3416;53.074;8.822;2023-08-06T03:05:24;8.20;;;7.40;;
6757;SDS011;3416;53.074;8.822;2023-08-06T03:07:52;7.70;;;6.95;;
6757;SDS011;3416;53.074;8.822;2023-08-06T03:10:18;8.93;;;6.20;;
6757;SDS011;3416;53.074;8.822;2023-08-06T03:12:46;7.68;;;6.88;;
6757;SDS011;3416;53.074;8.822;2023-08-06T03:15:13;8.38;;;7.68;;
6757;SDS011;3416;53.074;8.822;2023-08-06T03:17:41;9.75;;;8.82;;
6757;SDS011;3416;53.074;8.822;2023-08-06T03:20:09;7.63;;;6.93;;
6757;SDS011;3416;53.074;8.822;2023-08-06T03:22:36;8.32;;;7.30;;
6757;SDS011;3416;53.074;8.822;2023-08-06T03:25:05;7.80;;;7.00;;
6757;SDS011;3416;53.074;8.822;2023-08-06T03:27:32;6.30;;;5.70;;
6757;SDS011;3416;53.074;8.822;2023-08-06T03:29:59;7.15;;;6.55;;
6757;SDS011;3416;53.074;8.822;2023-08-06T03:32:26;6.78;;;6.18;;
6757;SDS011;3416;53.074;8.822;2023-08-06T03:34:55;7.85;;;6.97;;
6757;SDS011;3416;53.074;8.822;2023-08-06T03:37:21;6.88;;;6.28;;
6757;SDS011;3416;53.074;8.822;2023-08-06T03:39:48;7.22;;;6.20;;
6757;SDS011;3416;53.074;8.822;2023-08-06T03:42:15;6.65;;;5.97;;
6757;SDS011;3416;53.074;8.822;2023-08-06T03:44:42;15.07;;;7.45;;
6757;SDS011;3416;53.074;8.822;2023-08-06T03:47:09;7.35;;;6.75;;
6757;SDS011;3416;53.074;8.822;2023-08-06T03:49:36;7.15;;;6.45;;
6757;SDS011;3416;53.074;8.822;2023-08-06T03:52:04;7.63;;;5.65;;
6757;SDS011;3416;53.074;8.822;2023-08-06T03:54:32;6.90;;;6.22;;
6757;SDS011;3416;53.074;8.822;2023-08-06T03:56:59;7.75;;;6.50;;
6757;SDS011;3416;53.074;8.822;2023-08-06T03:59:26;7.18;;;6.38;;
6757;SDS011;3416;53.074;8.822;2023-08-06T04:01:53;7.88;;;7.18;;
6757;SDS011;3416;53.074;8.822;2023-08-06T04:04:20;7.90;;;7.10;;
6757;SDS011;3416;53.074;8.822;2023-08-06T04:06:46;8.30;;;7.60;;
6757;SDS011;3416;53.074;8.822;2023-08-06T04:09:15;11.73;;;9.63;;
6757;SDS011;3416;53.074;8.822;2023-08-06T04:11:41;10.93;;;7.80;;
6757;SDS011;3416;53.074;8.822;2023-08-06T04:14:08;9.20;;;8.35;;
6757;SDS011;3416;53.074;8.822;2023-08-06T04:16:35;10.18;;;8.32;;
6757;SDS011;3416;53.074;8.822;2023-08-06T04:19:04;11.00;;;8.60;;
6757;SDS011;3416;53.074;8.822;2023-08-06T04:21:32;9.38;;;8.48;;
6757;SDS011;3416;53.074;8.822;2023-08-06T04:23:59;8.60;;;7.85;;
6757;SDS011;3416;53.074;8.822;2023-08-06T04:26:28;9.10;;;8.20;;
6757;SDS011;3416;53.074;8.822;2023-08-06T04:28:55;10.95;;;9.80;;
6757;SDS011;3416;53.074;8.822;2023-08-06T04:31:22;11.05;;;10.02;;
6757;SDS011;3416;53.074;8.822;2023-08-06T04:33:49;9.65;;;8.80;;
6757;SDS011;3416;53.074;8.822;2023-08-06T04:36:16;10.25;;;9.35;;
6757;SDS011;3416;53.074;8.822;2023-08-06T04:38:43;10.25;;;9.27;;
6757;SDS011;3416;53.074;8.822;2023-08-06T04:41:12;10.50;;;9.50;;
6757;SDS011;3416;53.074;8.822;2023-08-06T04:43:40;10.88;;;9.65;;
6757;SDS011;3416;53.074;8.822;2023-08-06T04:46:07;10.02;;;9.00;;
6757;SDS011;3416;53.074;8.822;2023-08-06T04:48:34;13.43;;;10.50;;
6757;SDS011;3416;53.074;8.822;2023-08-06T04:51:01;10.93;;;9.82;;
6757;SDS011;3416;53.074;8.822;2023-08-06T04:53:28;10.45;;;9.35;;
6757;SDS011;3416;53.074;8.822;2023-08-06T04:55:55;10.75;;;9.75;;
6757;SDS011;3416;53.074;8.822;2023-08-06T04:58:22;13.03;;;11.23;;
6757;SDS011;3416;53.074;8.822;2023-08-06T05:00:50;9.93;;;9.07;;
6757;SDS011;3416;53.074;8.822;2023-08-06T05:03:17;15.45;;;12.20;;
6757;SDS011;3416;53.074;8.822;2023-08-06T05:05:50;14.32;;;12.65;;
6757;SDS011;3416;53.074;8.822;2023-08-06T05:08:16;11.77;;;10.60;;
6757;SDS011;3416;53.074;8.822;2023-08-06T05:10:46;11.85;;;10.65;;
6757;SDS011;3416;53.074;8.822;2023-08-06T05:13:13;13.30;;;12.02;;
6757;SDS011;3416;53.074;8.822;2023-08-06T05:15:41;11.02;;;10.02;;
6757;SDS011;3416;53.074;8.822;2023-08-06T05:18:09;14.48;;;10.80;;
6757;SDS011;3416;53.074;8.822;2023-08-06T05:20:36;10.93;;;9.93;;
6757;SDS011;3416;53.074;8.822;2023-08-06T05:23:03;12.25;;;11.05;;
6757;SDS011;3416;53.074;8.822;2023-08-06T05:25:30;12.80;;;10.18;;
6757;SDS011;3416;53.074;8.822;2023-08-06T05:27:58;11.68;;;9.85;;
6757;SDS011;3416;53.074;8.822;2023-08-06T05:30:26;12.93;;;10.35;;
6757;SDS011;3416;53.074;8.822;2023-08-06T05:32:55;11.32;;;10.13;;
6757;SDS011;3416;53.074;8.822;2023-08-06T05:35:24;10.52;;;9.43;;
6757;SDS011;3416;53.074;8.822;2023-08-06T05:37:52;8.07;;;7.40;;
6757;SDS011;3416;53.074;8.822;2023-08-06T05:40:19;12.38;;;9.32;;
6757;SDS011;3416;53.074;8.822;2023-08-06T05:42:46;10.93;;;9.90;;
6757;SDS011;3416;53.074;8.822;2023-08-06T05:45:13;9.52;;;8.45;;
6757;SDS011;3416;53.074;8.822;2023-08-06T05:47:42;8.25;;;7.53;;
6757;SDS011;3416;53.074;8.822;2023-08-06T05:50:08;9.25;;;8.45;;
6757;SDS011;3416;53.074;8.822;2023-08-06T05:52:37;9.95;;;8.95;;
6757;SDS011;3416;53.074;8.822;2023-08-06T05:55:04;10.10;;;9.23;;
6757;SDS011;3416;53.074;8.822;2023-08-06T05:57:32;8.60;;;7.80;;
6757;SDS011;3416;53.074;8.822;2023-08-06T05:59:58;13.77;;;10.30;;
6757;SDS011;3416;53.074;8.822;2023-08-06T06:02:26;9.97;;;8.97;;
6757;SDS011;3416;53.074;8.822;2023-08-06T06:04:53;7.70;;;7.00;;
6757;SDS011;3416;53.074;8.822;2023-08-06T06:07:20;8.90;;;8.00;;
6757;SDS011;3416;53.074;8.822;2023-08-06T06:09:48;11.03;;;9.00;;
6757;SDS011;3416;53.074;8.822;2023-08-06T06:12:15;8.87;;;8.00;;
6757;SDS011;3416;53.074;8.822;2023-08-06T06:14:41;9.50;;;8.50;;
6757;SDS011;3416;53.074;8.822;2023-08-06T06:17:09;8.33;;;7.50;;
6757;SDS011;3416;53.074;8.822;2023-08-06T06:19:36;7.90;;;7.20;;
6757;SDS011;3416;53.074;8.822;2023-08-06T06:22:03;9.63;;;7.63;;
6757;SDS011;3416;53.074;8.822;2023-08-06T06:24:31;7.80;;;7.10;;
6757;SDS011;3416;53.074;8.822;2023-08-06T06:26:59;8.63;;;7.83;;
6757;SDS011;3416;53.074;8.822;2023-08-06T06:29:28;8.77;;;7.87;;
6757;SDS011;3416;53.074;8.822;2023-08-06T06:31:54;8.00;;;7.23;;
6757;SDS011;3416;53.074;8.822;2023-08-06T06:34:23;6.93;;;5.77;;
6757;SDS011;3416;53.074;8.822;2023-08-06T06:36:50;8.57;;;7.77;;
6757;SDS011;3416;53.074;8.822;2023-08-06T06:39:20;7.60;;;6.90;;
6757;SDS011;3416;53.074;8.822;2023-08-06T06:41:47;8.43;;;7.00;;
6757;SDS011;3416;53.074;8.822;2023-08-06T06:44:17;7.37;;;6.67;;
6757;SDS011;3416;53.074;8.822;2023-08-06T06:46:46;8.07;;;7.27;;
6757;SDS011;3416;53.074;8.822;2023-08-06T06:49:13;8.67;;;7.87;;
6757;SDS011;3416;53.074;8.822;2023-08-06T06:51:40;8.37;;;6.80;;
6757;SDS011;3416;53.074;8.822;2023-08-06T06:54:07;6.80;;;6.20;;
6757;SDS011;3416;53.074;8.822;2023-08-06T06:56:34;7.23;;;6.53;;
6757;SDS011;3416;53.074;8.822;2023-08-06T06:59:02;8.87;;;8.03;;
6757;SDS011;3416;53.074;8.822;2023-08-06T07:01:31;7.93;;;7.13;;
6757;SDS011;3416;53.074;8.822;2023-08-06T07:03:58;7.57;;;6.87;;
6757;SDS011;3416;53.074;8.822;2023-08-06T07:08:57;7.60;;;7.00;;
6757;SDS011;3416;53.074;8.822;2023-08-06T07:11:24;6.73;;;6.07;;
6757;SDS011;3416;53.074;8.822;2023-08-06T07:13:55;7.40;;;6.70;;
6757;SDS011;3416;53.074;8.822;2023-08-06T07:16:23;8.53;;;6.83;;
6757;SDS011;3416;53.074;8.822;2023-08-06T07:18:53;6.73;;;6.00;;
6757;SDS011;3416;53.074;8.822;2023-08-06T07:21:20;6.60;;;6.00;;
6757;SDS011;3416;53.074;8.822;2023-08-06T07:23:48;7.03;;;5.57;;
6757;SDS011;3416;53.074;8.822;2023-08-06T07:26:15;9.23;;;7.37;;
6757;SDS011;3416;53.074;8.822;2023-08-06T07:28:43;5.63;;;5.13;;
6757;SDS011;3416;53.074;8.822;2023-08-06T07:31:10;5.97;;;4.67;;
6757;SDS011;3416;53.074;8.822;2023-08-06T07:33:37;5.03;;;4.60;;
6757;SDS011;3416;53.074;8.822;2023-08-06T07:36:09;5.47;;;4.70;;
6757;SDS011;3416;53.074;8.822;2023-08-06T07:38:37;5.47;;;4.97;;
6757;SDS011;3416;53.074;8.822;2023-08-06T07:41:04;5.53;;;4.90;;
6757;SDS011;3416;53.074;8.822;2023-08-06T07:43:31;6.93;;;5.07;;
6757;SDS011;3416;53.074;8.822;2023-08-06T07:45:58;7.30;;;5.20;;
6757;SDS011;3416;53.074;8.822;2023-08-06T07:48:25;5.13;;;4.73;;
6757;SDS011;3416;53.074;8.822;2023-08-06T07:50:53;4.93;;;4.43;;
6757;SDS011;3416;53.074;8.822;2023-08-06T07:53:21;5.13;;;3.70;;
6757;SDS011;3416;53.074;8.822;2023-08-06T07:55:52;4.10;;;3.70;;
6757;SDS011;3416;53.074;8.822;2023-08-06T07:58:20;5.30;;;4.80;;
6757;SDS011;3416;53.074;8.822;2023-08-06T08:00:47;5.23;;;4.73;;
6757;SDS011;3416;53.074;8.822;2023-08-06T08:03:15;4.67;;;4.30;;
6757;SDS011;3416;53.074;8.822;2023-08-06T08:05:43;5.13;;;4.57;;
6757;SDS011;3416;53.074;8.822;2023-08-06T08:08:13;4.10;;;3.70;;
6757;SDS011;3416;53.074;8.822;2023-08-06T08:10:41;3.50;;;3.20;;
6757;SDS011;3416;53.074;8.822;2023-08-06T08:13:08;3.93;;;3.43;;
6757;SDS011;3416;53.074;8.822;2023-08-06T08:15:35;3.93;;;3.53;;
6757;SDS011;3416;53.074;8.822;2023-08-06T08:18:08;4.43;;;3.57;;
6757;SDS011;3416;53.074;8.822;2023-08-06T08:20:35;3.70;;;3.40;;
6757;SDS011;3416;53.074;8.822;2023-08-06T08:23:02;3.40;;;2.53;;
6757;SDS011;3416;53.074;8.822;2023-08-06T08:25:29;3.93;;;3.43;;
6757;SDS011;3416;53.074;8.822;2023-08-06T08:27:58;3.63;;;3.33;;
6757;SDS011;3416;53.074;8.822;2023-08-06T08:30:25;4.70;;;3.27;;
6757;SDS011;3416;53.074;8.822;2023-08-06T08:32:52;3.13;;;2.80;;
6757;SDS011;3416;53.074;8.822;2023-08-06T08:35:19;4.67;;;3.77;;
6757;SDS011;3416;53.074;8.822;2023-08-06T08:37:46;4.27;;;3.63;;
6757;SDS011;3416;53.074;8.822;2023-08-06T08:40:13;7.33;;;5.40;;
6757;SDS011;3416;53.074;8.822;2023-08-06T08:42:41;6.03;;;3.00;;
6757;SDS011;3416;53.074;8.822;2023-08-06T08:45:11;3.73;;;3.30;;
6757;SDS011;3416;53.074;8.822;2023-08-06T08:47:40;4.50;;;4.13;;
6757;SDS011;3416;53.074;8.822;2023-08-06T08:50:08;5.57;;;3.20;;
6757;SDS011;3416;53.074;8.822;2023-08-06T08:52:36;4.37;;;3.40;;
6757;SDS011;3416;53.074;8.822;2023-08-06T08:55:05;3.40;;;3.10;;
6757;SDS011;3416;53.074;8.822;2023-08-06T08:57:34;4.50;;;3.50;;
6757;SDS011;3416;53.074;8.822;2023-08-06T09:00:01;3.00;;;2.80;;
6757;SDS011;3416;53.074;8.822;2023-08-06T09:02:29;4.13;;;2.70;;
6757;SDS011;3416;53.074;8.822;2023-08-06T09:04:59;3.20;;;2.70;;
6757;SDS011;3416;53.074;8.822;2023-08-06T09:07:29;2.87;;;2.53;;
6757;SDS011;3416;53.074;8.822;2023-08-06T09:09:59;3.70;;;3.13;;
6757;SDS011;3416;53.074;8.822;2023-08-06T09:12:30;3.87;;;3.57;;
6757;SDS011;3416;53.074;8.822;2023-08-06T09:14:57;6.63;;;3.10;;
6757;SDS011;3416;53.074;8.822;2023-08-06T09:17:24;4.30;;;3.63;;
6757;SDS011;3416;53.074;8.822;2023-08-06T09:19:54;3.10;;;2.80;;
6757;SDS011;3416;53.074;8.822;2023-08-06T09:22:21;3.20;;;2.87;;
6757;SDS011;3416;53.074;8.822;2023-08-06T09:24:49;3.40;;;3.07;;
6757;SDS011;3416;53.074;8.822;2023-08-06T09:27:16;3.10;;;2.80;;
6757;SDS011;3416;53.074;8.822;2023-08-06T09:29:43;4.50;;;3.20;;
6757;SDS011;3416;53.074;8.822;2023-08-06T09:32:11;3.40;;;3.10;;
6757;SDS011;3416;53.074;8.822;2023-08-06T09:34:38;3.13;;;2.83;;
6757;SDS011;3416;53.074;8.822;2023-08-06T09:37:08;6.90;;;3.00;;
6757;SDS011;3416;53.074;8.822;2023-08-06T09:39:38;2.80;;;2.43;;
6757;SDS011;3416;53.074;8.822;2023-08-06T09:42:06;5.40;;;2.73;;
6757;SDS011;3416;53.074;8.822;2023-08-06T09:44:33;2.50;;;2.30;;
6757;SDS011;3416;53.074;8.822;2023-08-06T09:47:02;3.77;;;3.37;;
6757;SDS011;3416;53.074;8.822;2023-08-06T09:49:40;3.03;;;2.73;;
6757;SDS011;3416;53.074;8.822;2023-08-06T09:52:12;2.70;;;2.00;;
6757;SDS011;3416;53.074;8.822;2023-08-06T09:54:41;2.50;;;2.30;;
6757;SDS011;3416;53.074;8.822;2023-08-06T09:57:11;4.93;;;2.37;;
6757;SDS011;3416;53.074;8.822;2023-08-06T09:59:38;2.30;;;2.10;;
6757;SDS011;3416;53.074;8.822;2023-08-06T10:02:07;4.10;;;2.53;;
6757;SDS011;3416;53.074;8.822;2023-08-06T10:04:39;2.17;;;1.97;;
6757;SDS011;3416;53.074;8.822;2023-08-06T10:07:06;2.40;;;2.20;;
6757;SDS011;3416;53.074;8.822;2023-08-06T10:09:36;4.10;;;2.27;;
6757;SDS011;3416;53.074;8.822;2023-08-06T10:12:03;3.40;;;2.50;;
6757;SDS011;3416;53.074;8.822;2023-08-06T10:14:31;3.73;;;2.57;;
6757;SDS011;3416;53.074;8.822;2023-08-06T10:16:59;2.30;;;1.67;;
6757;SDS011;3416;53.074;8.822;2023-08-06T10:19:27;2.00;;;1.60;;
6757;SDS011;3416;53.074;8.822;2023-08-06T10:22:08;2.50;;;1.90;;
6757;SDS011;3416;53.074;8.822;2023-08-06T10:24:47;1.90;;;1.70;;
6757;SDS011;3416;53.074;8.822;2023-08-06T10:27:19;3.07;;;2.30;;
6757;SDS011;3416;53.074;8.822;2023-08-06T10:29:54;2.40;;;1.90;;
6757;SDS011;3416;53.074;8.822;2023-08-06T10:32:21;2.30;;;2.10;;
6757;SDS011;3416;53.074;8.822;2023-08-06T10:35:06;2.03;;;1.83;;
6757;SDS011;3416;53.074;8.822;2023-08-06T10:37:36;2.10;;;1.90;;
6757;SDS011;3416;53.074;8.822;2023-08-06T10:40:05;2.57;;;1.90;;
6757;SDS011;3416;53.074;8.822;2023-08-06T10:42:35;2.00;;;1.80;;
6757;SDS011;3416;53.074;8.822;2023-08-06T10:45:12;4.87;;;3.90;;
6757;SDS011;3416;53.074;8.822;2023-08-06T10:47:40;2.50;;;2.07;;
6757;SDS011;3416;53.074;8.822;2023-08-06T10:50:07;2.40;;;2.13;;
6757;SDS011;3416;53.074;8.822;2023-08-06T10:52:37;2.23;;;1.73;;
6757;SDS011;3416;53.074;8.822;2023-08-06T10:55:06;2.43;;;1.90;;
6757;SDS011;3416;53.074;8.822;2023-08-06T10:57:34;2.33;;;2.00;;
6757;SDS011;3416;53.074;8.822;2023-08-06T11:00:01;2.30;;;1.77;;
6757;SDS011;3416;53.074;8.822;2023-08-06T11:02:32;2.57;;;1.87;;
6757;SDS011;3416;53.074;8.822;2023-08-06T11:05:04;5.83;;;3.53;;
6757;SDS011;3416;53.074;8.822;2023-08-06T11:07:31;2.67;;;2.00;;
6757;SDS011;3416;53.074;8.822;2023-08-06T11:10:02;3.00;;;1.83;;
6757;SDS011;3416;53.074;8.822;2023-08-06T11:12:31;3.30;;;2.03;;
6757;SDS011;3416;53.074;8.822;2023-08-06T11:14:58;4.50;;;4.10;;
6757;SDS011;3416;53.074;8.822;2023-08-06T11:17:26;3.27;;;2.70;;
6757;SDS011;3416;53.074;8.822;2023-08-06T11:19:54;3.20;;;2.57;;
6757;SDS011;3416;53.074;8.822;2023-08-06T11:22:21;3.43;;;2.27;;
6757;SDS011;3416;53.074;8.822;2023-08-06T11:24:48;4.20;;;2.00;;
6757;SDS011;3416;53.074;8.822;2023-08-06T11:27:16;2.90;;;2.10;;
6757;SDS011;3416;53.074;8.822;2023-08-06T11:29:45;2.80;;;2.60;;
6757;SDS011;3416;53.074;8.822;2023-08-06T11:32:11;4.33;;;2.40;;
6757;SDS011;3416;53.074;8.822;2023-08-06T11:34:39;2.47;;;2.13;;
6757;SDS011;3416;53.074;8.822;2023-08-06T11:37:06;3.07;;;2.43;;
6757;SDS011;3416;53.074;8.822;2023-08-06T11:39:33;2.90;;;2.20;;
6757;SDS011;3416;53.074;8.822;2023-08-06T11:42:02;3.27;;;3.03;;
6757;SDS011;3416;53.074;8.822;2023-08-06T11:44:30;3.17;;;2.30;;
6757;SDS011;3416;53.074;8.822;2023-08-06T11:47:00;8.50;;;2.60;;
6757;SDS011;3416;53.074;8.822;2023-08-06T11:49:38;3.37;;;1.83;;
6757;SDS011;3416;53.074;8.822;2023-08-06T11:52:10;2.40;;;2.17;;
6757;SDS011;3416;53.074;8.822;2023-08-06T11:54:39;3.80;;;2.60;;
6757;SDS011;3416;53.074;8.822;2023-08-06T11:57:07;2.20;;;2.00;;
6757;SDS011;3416;53.074;8.822;2023-08-06T11:59:34;2.23;;;2.00;;
6757;SDS011;3416;53.074;8.822;2023-08-06T12:02:04;3.20;;;1.93;;
6757;SDS011;3416;53.074;8.822;2023-08-06T12:07:25;2.07;;;1.80;;
6757;SDS011;3416;53.074;8.822;2023-08-06T12:09:53;2.00;;;1.80;;
6757;SDS011;3416;53.074;8.822;2023-08-06T12:12:20;2.20;;;2.00;;
6757;SDS011;3416;53.074;8.822;2023-08-06T12:14:47;3.00;;;2.30;;
6757;SDS011;3416;53.074;8.822;2023-08-06T12:17:17;2.50;;;1.97;;
6757;SDS011;3416;53.074;8.822;2023-08-06T12:19:44;2.07;;;1.80;;
6757;SDS011;3416;53.074;8.822;2023-08-06T12:22:13;2.33;;;1.63;;
6757;SDS011;3416;53.074;8.822;2023-08-06T12:24:41;2.57;;;2.30;;
6757;SDS011;3416;53.074;8.822;2023-08-06T12:27:08;2.47;;;1.87;;
6757;SDS011;3416;53.074;8.822;2023-08-06T12:32:05;1.90;;;1.70;;
6757;SDS011;3416;53.074;8.822;2023-08-06T12:34:33;2.63;;;2.13;;
6757;SDS011;3416;53.074;8.822;2023-08-06T12:37:01;2.13;;;1.93;;
6757;SDS011;3416;53.074;8.822;2023-08-06T12:39:29;2.33;;;2.07;;
6757;SDS011;3416;53.074;8.822;2023-08-06T12:41:56;3.87;;;2.30;;
6757;SDS011;3416;53.074;8.822;2023-08-06T12:44:23;2.33;;;1.90;;
6757;SDS011;3416;53.074;8.822;2023-08-06T12:46:50;2.60;;;1.93;;
6757;SDS011;3416;53.074;8.822;2023-08-06T12:49:17;2.97;;;2.00;;
6757;SDS011;3416;53.074;8.822;2023-08-06T12:51:47;2.47;;;2.27;;
6757;SDS011;3416;53.074;8.822;2023-08-06T12:54:15;2.97;;;2.13;;
6757;SDS011;3416;53.074;8.822;2023-08-06T12:56:43;2.60;;;1.70;;
6757;SDS011;3416;53.074;8.822;2023-08-06T12:59:10;2.00;;;1.80;;
6757;SDS011;3416;53.074;8.822;2023-08-06T13:01:37;4.30;;;1.87;;
6757;SDS011;3416;53.074;8.822;2023-08-06T13:04:04;2.97;;;2.40;;
6757;SDS011;3416;53.074;8.822;2023-08-06T13:06:33;2.70;;;2.40;;
6757;SDS011;3416;53.074;8.822;2023-08-06T13:09:03;3.57;;;2.67;;
6757;SDS011;3416;53.074;8.822;2023-08-06T13:11:32;7.97;;;6.00;;
6757;SDS011;3416;53.074;8.822;2023-08-06T13:14:03;6.47;;;5.60;;
6757;SDS011;3416;53.074;8.822;2023-08-06T13:16:31;5.90;;;4.30;;
6757;SDS011;3416;53.074;8.822;2023-08-06T13:18:58;4.60;;;3.77;;
6757;SDS011;3416;53.074;8.822;2023-08-06T13:21:32;5.20;;;4.20;;
6757;SDS011;3416;53.074;8.822;2023-08-06T13:24:00;4.70;;;4.20;;
6757;SDS011;3416;53.074;8.822;2023-08-06T13:26:31;4.63;;;3.57;;
6757;SDS011;3416;53.074;8.822;2023-08-06T13:28:58;5.20;;;4.70;;
6757;SDS011;3416;53.074;8.822;2023-08-06T13:31:25;4.00;;;2.87;;
6757;SDS011;3416;53.074;8.822;2023-08-06T13:33:53;3.50;;;2.33;;
6757;SDS011;3416;53.074;8.822;2023-08-06T13:36:23;2.80;;;2.30;;
6757;SDS011;3416;53.074;8.822;2023-08-06T13:38:50;3.53;;;2.50;;
6757;SDS011;3416;53.074;8.822;2023-08-06T13:41:20;3.13;;;2.80;;
6757;SDS011;3416;53.074;8.822;2023-08-06T13:43:50;4.13;;;2.40;;
6757;SDS011;3416;53.074;8.822;2023-08-06T13:48:48;2.60;;;2.40;;
6757;SDS011;3416;53.074;8.822;2023-08-06T13:51:16;2.30;;;2.10;;
6757;SDS011;3416;53.074;8.822;2023-08-06T13:53:44;4.07;;;2.40;;
6757;SDS011;3416;53.074;8.822;2023-08-06T13:56:11;4.53;;;2.47;;
6757;SDS011;3416;53.074;8.822;2023-08-06T13:58:43;2.57;;;2.37;;
6757;SDS011;3416;53.074;8.822;2023-08-06T14:01:10;2.70;;;2.20;;
6757;SDS011;3416;53.074;8.822;2023-08-06T14:03:40;4.00;;;2.90;;
6757;SDS011;3416;53.074;8.822;2023-08-06T14:06:07;2.40;;;2.10;;
6757;SDS011;3416;53.074;8.822;2023-08-06T14:08:35;3.00;;;2.63;;
6757;SDS011;3416;53.074;8.822;2023-08-06T14:11:02;2.70;;;2.30;;
6757;SDS011;3416;53.074;8.822;2023-08-06T14:13:30;2.40;;;2.13;;
6757;SDS011;3416;53.074;8.822;2023-08-06T14:15:58;3.03;;;2.17;;
6757;SDS011;3416;53.074;8.822;2023-08-06T14:18:28;3.23;;;1.80;;
6757;SDS011;3416;53.074;8.822;2023-08-06T14:20:54;4.90;;;2.27;;
6757;SDS011;3416;53.074;8.822;2023-08-06T14:23:21;2.93;;;2.43;;
6757;SDS011;3416;53.074;8.822;2023-08-06T14:25:48;2.80;;;2.37;;
6757;SDS011;3416;53.074;8.822;2023-08-06T14:28:15;2.40;;;2.20;;
6757;SDS011;3416;53.074;8.822;2023-08-06T14:30:42;2.40;;;1.90;;
6757;SDS011;3416;53.074;8.822;2023-08-06T14:33:10;2.83;;;2.57;;
6757;SDS011;3416;53.074;8.822;2023-08-06T14:35:37;2.77;;;2.37;;
6757;SDS011;3416;53.074;8.822;2023-08-06T14:38:04;3.10;;;2.80;;
6757;SDS011;3416;53.074;8.822;2023-08-06T14:40:31;5.03;;;3.17;;
6757;SDS011;3416;53.074;8.822;2023-08-06T14:43:02;3.10;;;2.80;;
6757;SDS011;3416;53.074;8.822;2023-08-06T14:45:30;2.87;;;2.30;;
6757;SDS011;3416;53.074;8.822;2023-08-06T14:47:57;3.00;;;2.70;;
6757;SDS011;3416;53.074;8.822;2023-08-06T14:50:25;4.43;;;2.80;;
6757;SDS011;3416;53.074;8.822;2023-08-06T14:52:52;2.60;;;2.30;;
6757;SDS011;3416;53.074;8.822;2023-08-06T14:55:23;2.60;;;2.20;;
6757;SDS011;3416;53.074;8.822;2023-08-06T14:57:51;2.90;;;2.63;;
6757;SDS011;3416;53.074;8.822;2023-08-06T15:00:19;5.53;;;2.90;;
6757;SDS011;3416;53.074;8.822;2023-08-06T15:02:49;2.27;;;2.07;;
6757;SDS011;3416;53.074;8.822;2023-08-06T15:05:16;2.53;;;2.10;;
6757;SDS011;3416;53.074;8.822;2023-08-06T15:07:44;2.87;;;2.63;;
6757;SDS011;3416;53.074;8.822;2023-08-06T15:10:11;3.37;;;3.07;;
6757;SDS011;3416;53.074;8.822;2023-08-06T15:12:40;4.07;;;3.37;;
6757;SDS011;3416;53.074;8.822;2023-08-06T15:15:07;4.07;;;3.27;;
6757;SDS011;3416;53.074;8.822;2023-08-06T15:17:35;3.90;;;2.80;;
6757;SDS011;3416;53.074;8.822;2023-08-06T15:20:02;5.97;;;2.97;;
6757;SDS011;3416;53.074;8.822;2023-08-06T15:22:31;4.90;;;2.70;;
6757;SDS011;3416;53.074;8.822;2023-08-06T15:24:59;3.80;;;2.57;;
6757;SDS011;3416;53.074;8.822;2023-08-06T15:27:26;5.43;;;3.37;;
6757;SDS011;3416;53.074;8.822;2023-08-06T15:29:53;3.67;;;2.70;;